Startpagina
METAR-TAF:

METAR-TAF

Vliegvelden :

Aeroporto da Madeira

Funchal, Madeira, Portugal

breedte: 32-41-52N, lengte: 016-46-28W, hoogte: 59 m

Actueel weer

Dit bericht is 32 minuten geleden gemaakt, om 11:30 UTC
Wind 4 kt uit het oosten, variërend tussen het noorden en het zuidzuidoosten
Temperatuur 23°C
Vochtigheid 69%
Druk 1015 hPa
Zicht 10 km of meer
Weinig wolken op 1300 ft

METAR: LPMA 221130Z 09004KT 010V150 9999 FEW013 23/17 Q1015

Tijdstip: 12:02 (12:02 UTC)

Verwachting

Dit bericht is 1 uur en het 2 minuten geleden gemaakt, om 11:00 UTC
Verwachting geldig van 22 om 12 UTC tot 23 om 12 UTC
Wind 5 kt uit variabele richting
Zicht 10 km of meer
Verspreide wolken op 1500 ft
Tijdelijke
van 22 om 12 UTC tot 23 om 12 UTC
Gebroken wolken op 1500 ft
Wijzigt naar
van 23 om 06 UTC tot 23 om 09 UTC
Wind 12 kt uit het noorden

TAF: LPMA 221100Z 2212/2312 VRB05KT 9999 SCT015 TEMPO 2212/2312 BKN015 BECMG 2306/2309 36012KT

Waarnemingen en weersverwachtingen van meer dan 4000 vliegvelden (METAR en TAF).

De beschikbare stations zijn de gele en rode punten op de kaart.

Ga met uw muis naar het station om de naam te zien.

Klik dan om waarnemingen en weersverwachtingen te zien.

kaart wijzigen: klik op de groene knoppen met een zwart kruis om in te zoomen, op de groene knop met een streepje om uit te zoomen of op de groene pijlen voor aangrenzende kaarten.


METAR-TAF: